sensor_id;sensor_type;location;lat;lon;timestamp;pressure;altitude;pressure_sealevel;temperature;humidity
78309;BME280;67566;42.022;21.356;2023-04-06T00:00:47;98594.81;;;4.35;58.91
78309;BME280;67566;42.022;21.356;2023-04-06T00:03:12;98599.28;;;4.35;58.61
78309;BME280;67566;42.022;21.356;2023-04-06T00:05:38;98603.00;;;4.34;59.73
78309;BME280;67566;42.022;21.356;2023-04-06T00:08:04;98598.75;;;4.33;59.62
78309;BME280;67566;42.022;21.356;2023-04-06T00:10:29;98600.34;;;4.34;59.55
78309;BME280;67566;42.022;21.356;2023-04-06T00:12:55;98595.88;;;4.34;58.63
78309;BME280;67566;42.022;21.356;2023-04-06T00:15:22;98596.94;;;4.33;59.40
78309;BME280;67566;42.022;21.356;2023-04-06T00:17:48;98589.78;;;4.29;59.77
78309;BME280;67566;42.022;21.356;2023-04-06T00:20:15;98588.19;;;4.28;59.76
78309;BME280;67566;42.022;21.356;2023-04-06T00:22:40;98591.09;;;4.26;59.47
78309;BME280;67566;42.022;21.356;2023-04-06T00:25:06;98586.88;;;4.25;59.18
78309;BME280;67566;42.022;21.356;2023-04-06T00:27:32;98587.94;;;4.24;60.13
78309;BME280;67566;42.022;21.356;2023-04-06T00:29:57;98588.47;;;4.21;60.00
78309;BME280;67566;42.022;21.356;2023-04-06T00:32:23;98583.69;;;4.18;59.75
78309;BME280;67566;42.022;21.356;2023-04-06T00:34:48;98582.09;;;4.17;60.13
78309;BME280;67566;42.022;21.356;2023-04-06T00:37:14;98585.28;;;4.19;60.06
78309;BME280;67566;42.022;21.356;2023-04-06T00:39:39;98581.84;;;4.19;59.39
78309;BME280;67566;42.022;21.356;2023-04-06T00:42:11;98584.50;;;4.19;59.09
78309;BME280;67566;42.022;21.356;2023-04-06T00:44:42;98581.59;;;4.20;58.70
78309;BME280;67566;42.022;21.356;2023-04-06T00:47:08;98586.59;;;4.16;60.32
78309;BME280;67566;42.022;21.356;2023-04-06T00:49:34;98582.09;;;4.17;59.49
78309;BME280;67566;42.022;21.356;2023-04-06T00:52:00;98577.63;;;4.18;59.75
78309;BME280;67566;42.022;21.356;2023-04-06T00:54:27;98573.41;;;4.16;60.07
78309;BME280;67566;42.022;21.356;2023-04-06T00:56:52;98573.41;;;4.16;60.00
78309;BME280;67566;42.022;21.356;2023-04-06T00:59:18;98576.84;;;4.17;59.72
78309;BME280;67566;42.022;21.356;2023-04-06T01:01:44;98571.81;;;4.15;59.75
78309;BME280;67566;42.022;21.356;2023-04-06T01:04:10;98567.38;;;4.16;59.43
78309;BME280;67566;42.022;21.356;2023-04-06T01:06:35;98564.72;;;4.16;59.02
78309;BME280;67566;42.022;21.356;2023-04-06T01:09:01;98565.78;;;4.15;60.02
78309;BME280;67566;42.022;21.356;2023-04-06T01:11:26;98563.91;;;4.10;60.07
78309;BME280;67566;42.022;21.356;2023-04-06T01:13:52;98563.13;;;4.10;59.92
78309;BME280;67566;42.022;21.356;2023-04-06T01:16:18;98550.97;;;4.09;59.24
78309;BME280;67566;42.022;21.356;2023-04-06T01:18:44;98558.88;;;4.09;59.21
78309;BME280;67566;42.022;21.356;2023-04-06T01:21:09;98545.72;;;4.09;59.43
78309;BME280;67566;42.022;21.356;2023-04-06T01:23:43;98549.66;;;4.06;59.92
78309;BME280;67566;42.022;21.356;2023-04-06T01:26:09;98548.06;;;4.05;59.87
78309;BME280;67566;42.022;21.356;2023-04-06T01:28:34;98548.63;;;4.02;59.93
78309;BME280;67566;42.022;21.356;2023-04-06T01:31:00;98555.16;;;4.00;59.94
78309;BME280;67566;42.022;21.356;2023-04-06T01:33:25;98547.00;;;3.96;60.18
78309;BME280;67566;42.022;21.356;2023-04-06T01:35:51;98542.50;;;3.96;60.11
78309;BME280;67566;42.022;21.356;2023-04-06T01:38:16;98534.34;;;3.98;59.71
78309;BME280;67566;42.022;21.356;2023-04-06T01:40:42;98543.84;;;3.99;59.92
78309;BME280;67566;42.022;21.356;2023-04-06T01:43:07;98533.56;;;3.97;59.73
78309;BME280;67566;42.022;21.356;2023-04-06T01:45:33;98544.34;;;3.96;60.42
78309;BME280;67566;42.022;21.356;2023-04-06T01:47:58;98539.09;;;3.96;60.19
78309;BME280;67566;42.022;21.356;2023-04-06T01:50:24;98541.72;;;3.96;59.79
78309;BME280;67566;42.022;21.356;2023-04-06T01:52:50;98533.03;;;3.95;60.17
78309;BME280;67566;42.022;21.356;2023-04-06T01:55:15;98537.78;;;3.93;60.04
78309;BME280;67566;42.022;21.356;2023-04-06T01:57:41;98535.66;;;3.90;60.43
78309;BME280;67566;42.022;21.356;2023-04-06T02:00:07;98531.94;;;3.91;60.13
78309;BME280;67566;42.022;21.356;2023-04-06T02:02:32;98525.38;;;3.89;59.98
78309;BME280;67566;42.022;21.356;2023-04-06T02:04:58;98527.22;;;3.88;59.52
78309;BME280;67566;42.022;21.356;2023-04-06T02:07:23;98524.34;;;3.90;59.76
78309;BME280;67566;42.022;21.356;2023-04-06T02:09:53;98521.69;;;3.90;59.71
78309;BME280;67566;42.022;21.356;2023-04-06T02:12:19;98522.75;;;3.89;60.03
78309;BME280;67566;42.022;21.356;2023-04-06T02:14:44;98523.53;;;3.89;59.36
78309;BME280;67566;42.022;21.356;2023-04-06T02:17:10;98514.31;;;3.87;60.09
78309;BME280;67566;42.022;21.356;2023-04-06T02:19:35;98518.22;;;3.84;59.83
78309;BME280;67566;42.022;21.356;2023-04-06T02:22:01;98514.53;;;3.80;59.22
78309;BME280;67566;42.022;21.356;2023-04-06T02:24:26;98521.91;;;3.78;59.28
78309;BME280;67566;42.022;21.356;2023-04-06T02:26:52;98519.25;;;3.73;59.46
78309;BME280;67566;42.022;21.356;2023-04-06T02:29:17;98509.22;;;3.70;59.48
78309;BME280;67566;42.022;21.356;2023-04-06T02:31:43;98516.59;;;3.68;59.57
78309;BME280;67566;42.022;21.356;2023-04-06T02:34:08;98507.66;;;3.69;60.37
78309;BME280;67566;42.022;21.356;2023-04-06T02:36:37;98510.81;;;3.66;59.98
78309;BME280;67566;42.022;21.356;2023-04-06T02:39:02;98506.31;;;3.66;60.02
78309;BME280;67566;42.022;21.356;2023-04-06T02:41:28;98508.97;;;3.66;59.89
78309;BME280;67566;42.022;21.356;2023-04-06T02:43:54;98512.63;;;3.65;60.08
78309;BME280;67566;42.022;21.356;2023-04-06T02:46:19;98512.09;;;3.63;59.53
78309;BME280;67566;42.022;21.356;2023-04-06T02:48:45;98516.84;;;3.61;59.94
78309;BME280;67566;42.022;21.356;2023-04-06T02:51:10;98510.00;;;3.60;60.52
78309;BME280;67566;42.022;21.356;2023-04-06T02:53:36;98508.94;;;3.61;60.10
78309;BME280;67566;42.022;21.356;2023-04-06T02:56:01;98513.41;;;3.61;59.41
78309;BME280;67566;42.022;21.356;2023-04-06T02:58:27;98513.13;;;3.57;59.37
78309;BME280;67566;42.022;21.356;2023-04-06T03:00:52;98509.69;;;3.56;59.43
78309;BME280;67566;42.022;21.356;2023-04-06T03:03:18;98511.53;;;3.56;60.10
78309;BME280;67566;42.022;21.356;2023-04-06T03:05:44;98510.75;;;3.55;60.09
78309;BME280;67566;42.022;21.356;2023-04-06T03:08:09;98510.22;;;3.53;59.72
78309;BME280;67566;42.022;21.356;2023-04-06T03:10:35;98506.78;;;3.53;60.17
78309;BME280;67566;42.022;21.356;2023-04-06T03:13:00;98508.88;;;3.51;59.31
78309;BME280;67566;42.022;21.356;2023-04-06T03:15:26;98504.69;;;3.50;59.98
78309;BME280;67566;42.022;21.356;2023-04-06T03:17:51;98509.94;;;3.50;60.17
78309;BME280;67566;42.022;21.356;2023-04-06T03:20:17;98503.09;;;3.49;60.21
78309;BME280;67566;42.022;21.356;2023-04-06T03:22:42;98505.19;;;3.47;59.53
78309;BME280;67566;42.022;21.356;2023-04-06T03:25:08;98502.81;;;3.45;60.07
78309;BME280;67566;42.022;21.356;2023-04-06T03:27:33;98507.28;;;3.45;60.32
78309;BME280;67566;42.022;21.356;2023-04-06T03:29:59;98503.31;;;3.42;59.68
78309;BME280;67566;42.022;21.356;2023-04-06T03:32:25;98506.75;;;3.43;60.23
78309;BME280;67566;42.022;21.356;2023-04-06T03:34:51;98515.19;;;3.45;59.81
78309;BME280;67566;42.022;21.356;2023-04-06T03:37:16;98510.94;;;3.44;59.42
78309;BME280;67566;42.022;21.356;2023-04-06T03:39:42;98512.03;;;3.43;59.65
78309;BME280;67566;42.022;21.356;2023-04-06T03:42:07;98513.59;;;3.44;59.56
78309;BME280;67566;42.022;21.356;2023-04-06T03:44:33;98509.63;;;3.41;59.99
78309;BME280;67566;42.022;21.356;2023-04-06T03:46:59;98506.75;;;3.43;59.73
78309;BME280;67566;42.022;21.356;2023-04-06T03:49:25;98509.09;;;3.44;59.76
78309;BME280;67566;42.022;21.356;2023-04-06T03:51:50;98507.53;;;3.43;60.21
78309;BME280;67566;42.022;21.356;2023-04-06T03:54:16;98507.53;;;3.43;60.25
78309;BME280;67566;42.022;21.356;2023-04-06T03:56:41;98513.88;;;3.47;59.64
78309;BME280;67566;42.022;21.356;2023-04-06T03:59:07;98504.94;;;3.48;60.03
78309;BME280;67566;42.022;21.356;2023-04-06T04:01:32;98513.63;;;3.49;59.59
78309;BME280;67566;42.022;21.356;2023-04-06T04:03:58;98506.78;;;3.48;59.63
78309;BME280;67566;42.022;21.356;2023-04-06T04:06:23;98509.66;;;3.46;59.88
78309;BME280;67566;42.022;21.356;2023-04-06T04:08:49;98517.31;;;3.48;59.85
78309;BME280;67566;42.022;21.356;2023-04-06T04:11:15;98519.94;;;3.48;60.10
78309;BME280;67566;42.022;21.356;2023-04-06T04:13:41;98514.69;;;3.48;59.80
78309;BME280;67566;42.022;21.356;2023-04-06T04:16:06;98514.16;;;3.51;59.20
78309;BME280;67566;42.022;21.356;2023-04-06T04:18:32;98513.63;;;3.54;59.24
78309;BME280;67566;42.022;21.356;2023-04-06T04:20:57;98516.81;;;3.56;60.10
78309;BME280;67566;42.022;21.356;2023-04-06T04:23:23;98517.91;;;3.60;59.89
78309;BME280;67566;42.022;21.356;2023-04-06T04:25:48;98522.13;;;3.66;59.25
78309;BME280;67566;42.022;21.356;2023-04-06T04:28:14;98528.47;;;3.75;59.36
78309;BME280;67566;42.022;21.356;2023-04-06T04:30:39;98523.75;;;3.77;59.00
78309;BME280;67566;42.022;21.356;2023-04-06T04:33:05;98527.72;;;3.80;58.91
78309;BME280;67566;42.022;21.356;2023-04-06T04:35:30;98526.13;;;3.84;59.60
78309;BME280;67566;42.022;21.356;2023-04-06T04:37:56;98533.03;;;3.90;59.85
78309;BME280;67566;42.022;21.356;2023-04-06T04:40:21;98536.47;;;3.96;60.04
78309;BME280;67566;42.022;21.356;2023-04-06T04:42:47;98537.56;;;4.10;59.18
78309;BME280;67566;42.022;21.356;2023-04-06T04:45:12;98539.44;;;4.25;57.94
78309;BME280;67566;42.022;21.356;2023-04-06T04:47:38;98539.22;;;4.37;57.94
78309;BME280;67566;42.022;21.356;2023-04-06T04:50:04;98534.50;;;4.49;57.68
78309;BME280;67566;42.022;21.356;2023-04-06T04:52:29;98541.88;;;4.58;56.57
78309;BME280;67566;42.022;21.356;2023-04-06T04:54:55;98540.56;;;4.65;56.78
78309;BME280;67566;42.022;21.356;2023-04-06T04:57:21;98539.75;;;4.70;56.16
78309;BME280;67566;42.022;21.356;2023-04-06T04:59:46;98534.50;;;4.70;55.56
78309;BME280;67566;42.022;21.356;2023-04-06T05:02:13;98536.34;;;4.80;55.42
78309;BME280;67566;42.022;21.356;2023-04-06T05:04:38;98538.22;;;4.84;56.32
78309;BME280;67566;42.022;21.356;2023-04-06T05:07:10;98547.94;;;4.99;56.54
78309;BME280;67566;42.022;21.356;2023-04-06T05:09:35;98545.06;;;5.01;56.01
78309;BME280;67566;42.022;21.356;2023-04-06T05:12:01;98551.09;;;5.27;55.59
78309;BME280;67566;42.022;21.356;2023-04-06T05:14:27;98551.59;;;5.49;54.83
78309;BME280;67566;42.022;21.356;2023-04-06T05:16:53;98550.47;;;5.66;54.23
78309;BME280;67566;42.022;21.356;2023-04-06T05:19:19;98552.34;;;5.65;53.09
78309;BME280;67566;42.022;21.356;2023-04-06T05:21:44;98551.59;;;5.44;53.95
78309;BME280;67566;42.022;21.356;2023-04-06T05:24:10;98550.84;;;5.28;55.34
78309;BME280;67566;42.022;21.356;2023-04-06T05:26:36;98555.84;;;5.45;55.37
78309;BME280;67566;42.022;21.356;2023-04-06T05:29:02;98554.19;;;5.65;54.50
78309;BME280;67566;42.022;21.356;2023-04-06T05:31:27;98545.13;;;5.86;53.27
78309;BME280;67566;42.022;21.356;2023-04-06T05:33:53;98549.69;;;6.31;52.34
78309;BME280;67566;42.022;21.356;2023-04-06T05:36:18;98546.00;;;6.76;51.39
78309;BME280;67566;42.022;21.356;2023-04-06T05:38:44;98553.91;;;7.11;50.46
78309;BME280;67566;42.022;21.356;2023-04-06T05:41:10;98550.00;;;8.48;48.94
78309;BME280;67566;42.022;21.356;2023-04-06T05:43:36;98547.53;;;9.92;45.86
78309;BME280;67566;42.022;21.356;2023-04-06T05:46:02;98542.09;;;11.78;41.80
78309;BME280;67566;42.022;21.356;2023-04-06T05:48:27;98543.03;;;12.65;40.69
78309;BME280;67566;42.022;21.356;2023-04-06T05:50:54;98536.94;;;15.03;36.25
78309;BME280;67566;42.022;21.356;2023-04-06T05:53:20;98536.56;;;18.21;29.91
78309;BME280;67566;42.022;21.356;2023-04-06T05:55:46;98533.41;;;20.77;25.85
78309;BME280;67566;42.022;21.356;2023-04-06T05:58:12;98532.78;;;20.26;25.91
78309;BME280;67566;42.022;21.356;2023-04-06T06:00:37;98532.53;;;24.24;21.49
78309;BME280;67566;42.022;21.356;2023-04-06T06:03:03;98536.03;;;27.54;20.13
78309;BME280;67566;42.022;21.356;2023-04-06T06:05:30;98530.03;;;30.69;17.28
78309;BME280;67566;42.022;21.356;2023-04-06T06:07:55;98533.97;;;33.40;16.10
78309;BME280;67566;42.022;21.356;2023-04-06T06:10:21;98530.75;;;34.16;14.84
78309;BME280;67566;42.022;21.356;2023-04-06T06:12:46;98529.53;;;35.21;12.78
78309;BME280;67566;42.022;21.356;2023-04-06T06:15:12;98528.75;;;36.52;12.46
78309;BME280;67566;42.022;21.356;2023-04-06T06:17:37;98529.88;;;37.46;11.83
78309;BME280;67566;42.022;21.356;2023-04-06T06:20:08;98523.91;;;38.52;11.11
78309;BME280;67566;42.022;21.356;2023-04-06T06:22:33;98525.34;;;36.42;9.50
78309;BME280;67566;42.022;21.356;2023-04-06T06:24:59;98522.94;;;36.20;10.85
78309;BME280;67566;42.022;21.356;2023-04-06T06:27:25;98517.28;;;38.18;10.61
78309;BME280;67566;42.022;21.356;2023-04-06T06:29:51;98519.56;;;39.81;9.07
78309;BME280;67566;42.022;21.356;2023-04-06T06:32:16;98515.50;;;39.82;9.76
78309;BME280;67566;42.022;21.356;2023-04-06T06:34:42;98519.38;;;40.75;9.47
78309;BME280;67566;42.022;21.356;2023-04-06T06:37:07;98516.28;;;36.92;10.33
78309;BME280;67566;42.022;21.356;2023-04-06T06:39:33;98515.69;;;33.34;11.98
78309;BME280;67566;42.022;21.356;2023-04-06T06:41:58;98515.91;;;33.67;11.59
78309;BME280;67566;42.022;21.356;2023-04-06T06:44:26;98520.25;;;34.99;10.50
78309;BME280;67566;42.022;21.356;2023-04-06T06:46:52;98508.38;;;35.81;10.11
78309;BME280;67566;42.022;21.356;2023-04-06T06:49:18;98518.94;;;36.21;10.20
78309;BME280;67566;42.022;21.356;2023-04-06T06:51:44;98514.19;;;33.33;10.55
78309;BME280;67566;42.022;21.356;2023-04-06T06:54:11;98519.78;;;31.59;12.02
78309;BME280;67566;42.022;21.356;2023-04-06T06:56:37;98511.13;;;29.70;13.75
78309;BME280;67566;42.022;21.356;2023-04-06T06:59:03;98511.66;;;28.06;14.75
78309;BME280;67566;42.022;21.356;2023-04-06T07:01:30;98510.22;;;27.31;15.33
78309;BME280;67566;42.022;21.356;2023-04-06T07:03:56;98500.00;;;26.19;15.52
78309;BME280;67566;42.022;21.356;2023-04-06T07:06:21;98502.81;;;25.32;16.01
78309;BME280;67566;42.022;21.356;2023-04-06T07:08:47;98509.06;;;25.29;16.43
78309;BME280;67566;42.022;21.356;2023-04-06T07:11:13;98508.75;;;24.42;16.59
78309;BME280;67566;42.022;21.356;2023-04-06T07:13:38;98510.81;;;24.09;17.43
78309;BME280;67566;42.022;21.356;2023-04-06T07:16:04;98505.84;;;23.14;18.56
78309;BME280;67566;42.022;21.356;2023-04-06T07:18:29;98510.38;;;22.74;18.43
78309;BME280;67566;42.022;21.356;2023-04-06T07:20:56;98517.84;;;22.08;19.29
78309;BME280;67566;42.022;21.356;2023-04-06T07:23:22;98513.63;;;21.51;19.69
78309;BME280;67566;42.022;21.356;2023-04-06T07:25:47;98507.53;;;21.20;20.28
78309;BME280;67566;42.022;21.356;2023-04-06T07:28:16;98497.81;;;20.74;20.13
78309;BME280;67566;42.022;21.356;2023-04-06T07:30:41;98500.94;;;20.43;20.54
78309;BME280;67566;42.022;21.356;2023-04-06T07:33:07;98498.19;;;20.09;20.53
78309;BME280;67566;42.022;21.356;2023-04-06T07:35:33;98497.13;;;19.63;21.01
78309;BME280;67566;42.022;21.356;2023-04-06T07:38:00;98492.97;;;19.20;21.62
78309;BME280;67566;42.022;21.356;2023-04-06T07:40:25;98494.72;;;18.85;22.13
78309;BME280;67566;42.022;21.356;2023-04-06T07:42:52;98496.69;;;18.69;22.35
78309;BME280;67566;42.022;21.356;2023-04-06T07:45:17;98493.72;;;18.35;22.96
78309;BME280;67566;42.022;21.356;2023-04-06T07:47:43;98495.41;;;18.24;23.00
78309;BME280;67566;42.022;21.356;2023-04-06T07:50:09;98489.03;;;18.32;22.91
78309;BME280;67566;42.022;21.356;2023-04-06T07:52:35;98486.41;;;18.16;23.28
78309;BME280;67566;42.022;21.356;2023-04-06T07:55:01;98497.75;;;18.64;23.21
78309;BME280;67566;42.022;21.356;2023-04-06T07:57:26;98495.91;;;18.88;22.80
78309;BME280;67566;42.022;21.356;2023-04-06T07:59:52;98485.41;;;18.63;23.34
78309;BME280;67566;42.022;21.356;2023-04-06T08:02:18;98490.97;;;18.32;23.19
78309;BME280;67566;42.022;21.356;2023-04-06T08:04:44;98489.28;;;18.66;23.23
78309;BME280;67566;42.022;21.356;2023-04-06T08:07:09;98492.66;;;19.48;22.40
78309;BME280;67566;42.022;21.356;2023-04-06T08:09:35;98494.69;;;20.69;22.22
78309;BME280;67566;42.022;21.356;2023-04-06T08:12:00;98497.47;;;20.76;21.38
78309;BME280;67566;42.022;21.356;2023-04-06T08:14:26;98490.22;;;20.53;21.30
78309;BME280;67566;42.022;21.356;2023-04-06T08:16:52;98487.94;;;20.55;21.31
78309;BME280;67566;42.022;21.356;2023-04-06T08:19:17;98488.38;;;20.27;21.37
78309;BME280;67566;42.022;21.356;2023-04-06T08:21:44;98481.09;;;20.01;21.94
78309;BME280;67566;42.022;21.356;2023-04-06T08:24:11;98486.94;;;19.76;22.47
78309;BME280;67566;42.022;21.356;2023-04-06T08:26:37;98493.63;;;19.13;22.67
78309;BME280;67566;42.022;21.356;2023-04-06T08:29:02;98491.78;;;18.55;23.67
78309;BME280;67566;42.022;21.356;2023-04-06T08:31:29;98490.38;;;18.22;23.76
78309;BME280;67566;42.022;21.356;2023-04-06T08:33:55;98492.34;;;18.06;24.01
78309;BME280;67566;42.022;21.356;2023-04-06T08:36:21;98493.22;;;18.49;24.20
78309;BME280;67566;42.022;21.356;2023-04-06T08:38:49;98488.94;;;17.89;24.52
78309;BME280;67566;42.022;21.356;2023-04-06T08:41:15;98500.25;;;17.31;25.09
78309;BME280;67566;42.022;21.356;2023-04-06T08:43:48;98494.34;;;17.10;25.24
78309;BME280;67566;42.022;21.356;2023-04-06T08:46:14;98499.69;;;16.94;25.82
78309;BME280;67566;42.022;21.356;2023-04-06T08:48:41;98498.03;;;16.89;25.67
78309;BME280;67566;42.022;21.356;2023-04-06T08:51:08;98486.13;;;16.74;25.99
78309;BME280;67566;42.022;21.356;2023-04-06T08:53:34;98495.00;;;16.63;26.16
78309;BME280;67566;42.022;21.356;2023-04-06T08:56:00;98490.59;;;16.70;25.74
78309;BME280;67566;42.022;21.356;2023-04-06T08:58:28;98493.44;;;16.61;25.83
78309;BME280;67566;42.022;21.356;2023-04-06T09:00:55;98491.50;;;16.74;25.94
78309;BME280;67566;42.022;21.356;2023-04-06T09:03:22;98487.66;;;17.04;25.80
78309;BME280;67566;42.022;21.356;2023-04-06T09:05:49;98493.22;;;17.27;25.25
78309;BME280;67566;42.022;21.356;2023-04-06T09:08:15;98490.94;;;17.61;25.64
78309;BME280;67566;42.022;21.356;2023-04-06T09:10:41;98482.66;;;17.69;25.62
78309;BME280;67566;42.022;21.356;2023-04-06T09:13:08;98480.66;;;17.98;25.07
78309;BME280;67566;42.022;21.356;2023-04-06T09:15:34;98480.66;;;18.18;25.04
78309;BME280;67566;42.022;21.356;2023-04-06T09:18:00;98472.72;;;18.05;25.04
78309;BME280;67566;42.022;21.356;2023-04-06T09:20:26;98474.41;;;18.53;24.47
78309;BME280;67566;42.022;21.356;2023-04-06T09:22:54;98478.19;;;19.10;24.05
78309;BME280;67566;42.022;21.356;2023-04-06T09:25:21;98471.19;;;19.55;23.71
78309;BME280;67566;42.022;21.356;2023-04-06T09:27:48;98468.53;;;19.59;23.44
78309;BME280;67566;42.022;21.356;2023-04-06T09:30:23;98466.19;;;19.57;23.52
78309;BME280;67566;42.022;21.356;2023-04-06T09:32:52;98471.88;;;19.75;23.50
78309;BME280;67566;42.022;21.356;2023-04-06T09:35:18;98463.22;;;19.66;22.72
78309;BME280;67566;42.022;21.356;2023-04-06T09:37:48;98465.06;;;19.85;23.22
78309;BME280;67566;42.022;21.356;2023-04-06T09:40:14;98459.16;;;19.53;23.45
78309;BME280;67566;42.022;21.356;2023-04-06T09:42:45;98463.94;;;19.36;23.42
78309;BME280;67566;42.022;21.356;2023-04-06T09:45:11;98467.31;;;19.30;23.57
78309;BME280;67566;42.022;21.356;2023-04-06T09:47:37;98464.81;;;18.94;24.10
78309;BME280;67566;42.022;21.356;2023-04-06T09:50:07;98466.16;;;18.65;24.27
78309;BME280;67566;42.022;21.356;2023-04-06T09:52:47;98459.03;;;18.14;24.79
78309;BME280;67566;42.022;21.356;2023-04-06T09:55:22;98460.41;;;17.88;24.87
78309;BME280;67566;42.022;21.356;2023-04-06T09:58:04;98460.63;;;17.64;25.06
78309;BME280;67566;42.022;21.356;2023-04-06T10:00:32;98462.56;;;17.15;25.23
78309;BME280;67566;42.022;21.356;2023-04-06T10:05:56;98450.75;;;17.36;25.71
78309;BME280;67566;42.022;21.356;2023-04-06T10:08:28;98455.28;;;17.48;25.16
78309;BME280;67566;42.022;21.356;2023-04-06T10:10:55;98452.81;;;17.59;25.80
78309;BME280;67566;42.022;21.356;2023-04-06T10:13:21;98450.28;;;17.66;25.45
78309;BME280;67566;42.022;21.356;2023-04-06T10:15:49;98459.81;;;18.15;24.67
78309;BME280;67566;42.022;21.356;2023-04-06T10:18:16;98439.69;;;18.28;24.73
78309;BME280;67566;42.022;21.356;2023-04-06T10:20:54;98453.13;;;18.47;24.18
78309;BME280;67566;42.022;21.356;2023-04-06T10:26:02;98438.09;;;18.46;24.52
78309;BME280;67566;42.022;21.356;2023-04-06T10:28:33;98437.75;;;18.09;24.36
78309;BME280;67566;42.022;21.356;2023-04-06T10:31:04;98446.50;;;17.35;25.25
78309;BME280;67566;42.022;21.356;2023-04-06T10:33:30;98450.28;;;17.66;25.29
78309;BME280;67566;42.022;21.356;2023-04-06T10:35:56;98435.69;;;18.02;24.86
78309;BME280;67566;42.022;21.356;2023-04-06T10:38:33;98447.31;;;17.71;24.51
78309;BME280;67566;42.022;21.356;2023-04-06T10:41:04;98432.38;;;17.89;25.09
78309;BME280;67566;42.022;21.356;2023-04-06T10:43:33;98433.16;;;17.74;25.43
78309;BME280;67566;42.022;21.356;2023-04-06T10:46:00;98432.47;;;17.77;25.03
78309;BME280;67566;42.022;21.356;2023-04-06T10:48:37;98426.06;;;17.66;25.11
78309;BME280;67566;42.022;21.356;2023-04-06T10:51:08;98431.69;;;17.25;25.54
78309;BME280;67566;42.022;21.356;2023-04-06T10:53:35;98425.34;;;16.86;25.96
78309;BME280;67566;42.022;21.356;2023-04-06T10:56:00;98425.34;;;17.02;26.04
78309;BME280;67566;42.022;21.356;2023-04-06T10:58:27;98413.72;;;16.97;25.69
78309;BME280;67566;42.022;21.356;2023-04-06T11:00:54;98420.41;;;16.43;26.67
78309;BME280;67566;42.022;21.356;2023-04-06T11:03:21;98418.25;;;16.21;26.53
78309;BME280;67566;42.022;21.356;2023-04-06T11:05:50;98411.28;;;16.32;26.87
78309;BME280;67566;42.022;21.356;2023-04-06T11:08:26;98414.16;;;16.39;25.88
78309;BME280;67566;42.022;21.356;2023-04-06T11:11:13;98416.34;;;16.50;26.64
78309;BME280;67566;42.022;21.356;2023-04-06T11:13:52;98411.81;;;16.38;26.66
78309;BME280;67566;42.022;21.356;2023-04-06T11:16:20;98409.13;;;16.10;26.86
78309;BME280;67566;42.022;21.356;2023-04-06T11:18:57;98409.41;;;15.92;27.06
78309;BME280;67566;42.022;21.356;2023-04-06T11:21:36;98402.66;;;15.98;26.83
78309;BME280;67566;42.022;21.356;2023-04-06T11:26:43;98400.06;;;15.61;27.44
78309;BME280;67566;42.022;21.356;2023-04-06T11:29:11;98393.88;;;15.73;28.01
78309;BME280;67566;42.022;21.356;2023-04-06T11:31:48;98395.13;;;15.76;27.74
78309;BME280;67566;42.022;21.356;2023-04-06T11:34:21;98392.63;;;15.71;27.76
78309;BME280;67566;42.022;21.356;2023-04-06T11:36:48;98377.91;;;15.64;27.79
78309;BME280;67566;42.022;21.356;2023-04-06T11:39:24;98385.38;;;15.71;27.86
78309;BME280;67566;42.022;21.356;2023-04-06T11:41:51;98377.16;;;15.52;27.84
78309;BME280;67566;42.022;21.356;2023-04-06T11:46:58;98379.88;;;15.92;27.67
78309;BME280;67566;42.022;21.356;2023-04-06T11:49:27;98371.25;;;15.86;27.56
78309;BME280;67566;42.022;21.356;2023-04-06T11:51:57;98381.59;;;15.60;28.13
78309;BME280;67566;42.022;21.356;2023-04-06T11:54:37;98371.88;;;15.67;27.58
78309;BME280;67566;42.022;21.356;2023-04-06T11:57:05;98376.09;;;15.68;28.08
78309;BME280;67566;42.022;21.356;2023-04-06T11:59:32;98370.06;;;15.84;27.81
78309;BME280;67566;42.022;21.356;2023-04-06T12:01:58;98369.41;;;15.62;28.04
78309;BME280;67566;42.022;21.356;2023-04-06T12:04:23;98361.72;;;15.61;28.36
78309;BME280;67566;42.022;21.356;2023-04-06T12:06:49;98368.72;;;15.65;28.69
78309;BME280;67566;42.022;21.356;2023-04-06T12:09:16;98356.16;;;15.41;29.31
78309;BME280;67566;42.022;21.356;2023-04-06T12:11:45;98353.38;;;15.13;29.02
78309;BME280;67566;42.022;21.356;2023-04-06T12:14:11;98347.56;;;14.62;29.24
78309;BME280;67566;42.022;21.356;2023-04-06T12:16:37;98348.81;;;14.43;29.64
78309;BME280;67566;42.022;21.356;2023-04-06T12:19:03;98350.22;;;14.16;30.09
78309;BME280;67566;42.022;21.356;2023-04-06T12:21:29;98351.66;;;14.13;30.21
78309;BME280;67566;42.022;21.356;2023-04-06T12:23:56;98353.63;;;14.04;30.73
78309;BME280;67566;42.022;21.356;2023-04-06T12:26:22;98348.06;;;14.09;30.29
78309;BME280;67566;42.022;21.356;2023-04-06T12:28:47;98345.28;;;14.06;30.41
78309;BME280;67566;42.022;21.356;2023-04-06T12:31:20;98351.66;;;14.13;30.58
78309;BME280;67566;42.022;21.356;2023-04-06T12:33:47;98352.56;;;14.18;30.17
78309;BME280;67566;42.022;21.356;2023-04-06T12:36:18;98351.06;;;14.41;30.23
78309;BME280;67566;42.022;21.356;2023-04-06T12:38:45;98344.09;;;14.61;30.14
78309;BME280;67566;42.022;21.356;2023-04-06T12:41:12;98341.97;;;14.67;29.97
78309;BME280;67566;42.022;21.356;2023-04-06T12:43:39;98341.09;;;14.63;29.38
78309;BME280;67566;42.022;21.356;2023-04-06T12:46:05;98339.63;;;14.65;29.76
78309;BME280;67566;42.022;21.356;2023-04-06T12:48:31;98332.41;;;14.90;28.69
78309;BME280;67566;42.022;21.356;2023-04-06T12:50:58;98331.28;;;14.91;28.74
78309;BME280;67566;42.022;21.356;2023-04-06T12:53:57;98330.72;;;14.73;28.82
78309;BME280;67566;42.022;21.356;2023-04-06T12:56:24;98322.47;;;14.79;28.64
78309;BME280;67566;42.022;21.356;2023-04-06T12:58:51;98323.66;;;14.81;29.00
78309;BME280;67566;42.022;21.356;2023-04-06T13:01:17;98320.88;;;14.65;29.03
78309;BME280;67566;42.022;21.356;2023-04-06T13:03:43;98321.25;;;14.43;28.70